Airfield :
LOGIN :

Register | Disclaimer

   EN    FR    IT 

 










Legend :    VFR   Marginal VFR   IFR   Intensive IFR   Very Intensive IFR
Visi :
Ceiling :
>= 8 km
>= 3000ft
5 to 8 km
1000 to 3000 ft
1500m to 5 km
500 to 1000 ft
800 to 1500m
200 to 500 ft
< 800m
< 200 ft
Symbols :   Thunderstorms  Fog  Heavy snow  Heavy precipitations  Wind > 20 kt
SIGMETs :     Misc.  Thunderstorms  Icing  Turbulence  Mountain Waves  Volcanic Ashes






- Airport Elevation : 250 ft


LERI - Alcantarilla

CURRENT METAR :
  • 041600Z 17016KT CAVOK 36/13 Q1011 NOSIG

EXPIRED METARs :
  • 041530Z 18015KT CAVOK 36/13 Q1011 NOSIG
  • 041500Z 17016KT 140V200 CAVOK 36/13 Q1011 NOSIG
  • 041430Z 17013KT 130V200 CAVOK 37/15 Q1011 NOSIG
  • 041400Z 14008KT 060V200 CAVOK 37/15 Q1011 NOSIG
  • 041330Z VRB04KT CAVOK 37/11 Q1011 NOSIG
  • 041300Z VRB05KT CAVOK 37/11 Q1012 NOSIG

TAF TAF LERI
Valid from the 04 at 12:00 until the 05 at 12:00 UTC


041100Z 0412/0512 VRB02KT CAVOK TX38/0415Z TN20/0505Z
BECMG 0413/0415 22010KT
BECMG 0422/0424 05008KT



MET'MAP, your aeronautical weather chart ! - Copyright ORBIFLY December 2007 - Disclaimer

ORBIFLY MET'MAP TEAM :

Programming & Development : Alexandra Zaïnal
Concept & original design : Baudouin d'Aumeries
Assistance for programming : Marc-Olivier Méhu
Technical & hardware support : Manuel Goepfert

Contact : metmap@orbifly.com




SOURCES & CREDITS :

   NOAA